Time;durP1;ratioP1;P1;durP2;ratioP2;P2;SDS_P1;SDS_P2;PMS_P1;PMS_P2;Temp;Humidity;BMP_temperature;BMP_pressure;BME280_temperature;BME280_humidity;BME280_pressure;Samples;Min_cycle;Max_cycle;Signal;HPM_P1;HPM_P2
2021/10/23 00:09:09;;;;;;;0.43;0.20;;;15.20;99.90;;;;;;20345594;29;20715;-65
2021/10/23 00:19:14;;;;;;;0.80;0.80;;;14.90;99.90;;;;;;20345136;29;20202;-67
2021/10/23 00:29:17;;;;;;;1.40;1.10;;;14.70;99.90;;;;;;20343484;29;20209;-67
2021/10/23 00:39:22;;;;;;;0.80;0.77;;;14.70;99.90;;;;;;20338742;29;20732;-67
2021/10/23 00:49:26;;;;;;;0.50;0.50;;;14.70;99.90;;;;;;20342610;29;20211;-66
2021/10/23 00:59:32;;;;;;;0.53;0.53;;;14.80;99.90;;;;;;20342296;29;20198;-67
2021/10/23 01:09:37;;;;;;;0.40;0.40;;;14.70;99.90;;;;;;20340493;29;20257;-67
2021/10/23 01:19:42;;;;;;;0.53;0.40;;;14.70;99.90;;;;;;20341784;29;20752;-68
2021/10/23 01:29:48;;;;;;;0.20;0.07;;;14.50;99.90;;;;;;20333626;29;20316;-68
2021/10/23 01:39:51;;;;;;;0.40;0.37;;;14.30;99.90;;;;;;20268991;29;20317;-68
2021/10/23 01:49:56;;;;;;;0.57;0.57;;;14.10;99.90;;;;;;20259408;29;20230;-67
2021/10/23 02:00:00;;;;;;;0.20;0.10;;;14.00;99.90;;;;;;20349914;23;20356;-69
2021/10/23 02:10:06;;;;;;;0.20;0.10;;;14.00;99.90;;;;;;20340423;29;20232;-70
2021/10/23 02:20:12;;;;;;;0.57;0.47;;;14.10;99.90;;;;;;20339514;29;20240;-68
2021/10/23 02:30:16;;;;;;;0.20;0.10;;;14.20;99.90;;;;;;20338519;29;20243;-67
2021/10/23 02:40:20;;;;;;;0.20;0.10;;;14.10;99.90;;;;;;20333864;29;20206;-70
2021/10/23 02:50:25;;;;;;;0.20;0.10;;;14.00;99.90;;;;;;20338435;29;20562;-69
2021/10/23 03:00:29;;;;;;;0.20;0.20;;;14.00;99.90;;;;;;20371125;23;20241;-68
2021/10/23 03:10:35;;;;;;;0.20;0.10;;;13.70;99.90;;;;;;20336184;29;20250;-67
2021/10/23 03:20:38;;;;;;;0.30;0.30;;;13.50;99.90;;;;;;20334765;29;20217;-67
2021/10/23 03:30:44;;;;;;;1.23;1.13;;;13.40;99.90;;;;;;20335612;29;20577;-67
2021/10/23 03:40:47;;;;;;;0.20;0.00;;;13.20;99.90;;;;;;20325809;29;20202;-67
2021/10/23 03:50:52;;;;;;;0.20;0.10;;;13.20;99.90;;;;;;20334503;29;20316;-67
2021/10/23 04:00:56;;;;;;;0.67;0.47;;;13.30;99.90;;;;;;20349489;29;20241;-66
2021/10/23 04:11:01;;;;;;;3.33;1.40;;;13.30;99.90;;;;;;20333373;29;20237;-67
2021/10/23 04:21:05;;;;;;;0.20;0.10;;;13.40;99.90;;;;;;20342034;29;20278;-67
2021/10/23 04:31:10;;;;;;;0.20;0.10;;;13.50;99.90;;;;;;20338945;29;20226;-66
2021/10/23 04:41:13;;;;;;;0.37;0.20;;;13.30;99.90;;;;;;20270445;29;20230;-67
2021/10/23 04:51:18;;;;;;;0.20;0.10;;;13.20;99.90;;;;;;20273009;29;20576;-66
2021/10/23 05:01:23;;;;;;;19.63;1.80;;;13.10;99.90;;;;;;20344335;29;21042;-66
2021/10/23 05:11:29;;;;;;;0.53;0.47;;;13.00;99.90;;;;;;20343465;29;20325;-66
2021/10/23 05:21:32;;;;;;;0.20;0.20;;;13.00;99.90;;;;;;20344172;29;20289;-68
2021/10/23 05:31:37;;;;;;;0.20;0.20;;;12.90;99.90;;;;;;20341384;29;20731;-67
2021/10/23 05:41:41;;;;;;;0.20;0.10;;;12.90;99.90;;;;;;20341871;29;20309;-67
2021/10/23 05:51:46;;;;;;;0.20;0.10;;;12.90;99.90;;;;;;20330012;29;20237;-68
2021/10/23 06:01:57;;;;;;;0.30;0.30;;;12.90;99.90;;;;;;20261974;29;20669;-67
2021/10/23 06:12:06;;;;;;;0.20;0.10;;;12.90;99.90;;;;;;20260384;29;20249;-66
2021/10/23 06:22:10;;;;;;;0.20;0.13;;;12.90;99.90;;;;;;20260118;29;20274;-67
2021/10/23 06:32:15;;;;;;;0.20;0.10;;;12.90;99.90;;;;;;20259485;29;20600;-67
2021/10/23 06:42:19;;;;;;;0.40;0.30;;;13.00;99.90;;;;;;20258216;29;20540;-67
2021/10/23 06:52:24;;;;;;;0.20;0.20;;;13.10;99.90;;;;;;20274046;29;20229;-66
2021/10/23 07:02:28;;;;;;;0.77;0.50;;;13.40;99.90;;;;;;20334729;29;20309;-68
2021/10/23 07:12:33;;;;;;;0.20;0.20;;;13.50;99.90;;;;;;20335985;29;20598;-67
2021/10/23 07:22:36;;;;;;;0.20;0.20;;;13.60;99.90;;;;;;20336024;29;20202;-67
2021/10/23 07:32:42;;;;;;;0.30;0.30;;;13.60;99.90;;;;;;20334735;29;20320;-68
2021/10/23 07:42:46;;;;;;;0.60;0.60;;;13.70;99.90;;;;;;20333047;29;20211;-67
2021/10/23 07:52:51;;;;;;;0.50;0.50;;;13.90;99.90;;;;;;20298806;29;20226;-66
2021/10/23 08:02:57;;;;;;;0.30;0.20;;;14.30;99.90;;;;;;20347222;29;20238;-67
2021/10/23 08:13:04;;;;;;;0.43;0.43;;;14.70;99.90;;;;;;20346589;29;20583;-69
2021/10/23 08:23:09;;;;;;;0.80;0.67;;;14.90;99.90;;;;;;20347550;29;20237;-68
2021/10/23 08:33:14;;;;;;;1.60;0.87;;;15.10;99.90;;;;;;20344907;29;20234;-68
2021/10/23 08:43:18;;;;;;;0.50;0.20;;;15.20;99.90;;;;;;20360082;29;20616;-68
2021/10/23 08:53:23;;;;;;;2.00;1.17;;;15.50;99.90;;;;;;20320919;29;20269;-68
2021/10/23 09:03:27;;;;;;;3.00;0.87;;;15.70;99.90;;;;;;20265627;29;20310;-68
2021/10/23 09:13:36;;;;;;;0.40;0.40;;;16.10;99.90;;;;;;20264818;29;20664;-67
2021/10/23 09:23:40;;;;;;;0.30;0.27;;;16.50;99.90;;;;;;20263200;29;20218;-67
2021/10/23 09:33:59;;;;;;;2.63;1.13;;;16.80;99.90;;;;;;20263074;29;20234;-66
2021/10/23 09:44:14;;;;;;;0.87;0.83;;;17.20;99.90;;;;;;20261110;29;20289;-68
2021/10/23 09:54:22;;;;;;;0.80;0.80;;;17.50;99.90;;;;;;20290532;29;20225;-67
2021/10/23 10:04:26;;;;;;;4.63;0.93;;;17.50;99.90;;;;;;20339098;29;20490;-68
2021/10/23 10:14:35;;;;;;;0.87;0.67;;;17.60;99.90;;;;;;20337731;29;20680;-69
2021/10/23 10:24:39;;;;;;;1.70;0.30;;;17.90;99.90;;;;;;20338066;29;20202;-69
2021/10/23 10:35:12;;;;;;;0.20;0.10;;;18.40;99.90;;;;;;20334738;29;20226;-67
2021/10/23 10:45:34;;;;;;;0.43;0.43;;;18.40;99.90;;;;;;20337113;29;20232;-68
2021/10/23 10:55:41;;;;;;;0.20;0.00;;;19.10;99.90;;;;;;20294144;29;20262;-65
2021/10/23 11:05:45;;;;;;;0.87;0.40;;;19.20;99.90;;;;;;20254581;29;20226;-67
2021/10/23 11:15:50;;;;;;;1.30;0.57;;;19.60;99.90;;;;;;20253959;29;20659;-68
2021/10/23 11:25:54;;;;;;;0.33;0.30;;;21.10;99.90;;;;;;20253978;29;20207;-67
2021/10/23 11:36:00;;;;;;;0.40;0.38;;;22.10;99.90;;;;;;20254224;29;20225;-67
2021/10/23 11:46:06;;;;;;;0.20;0.13;;;22.80;99.90;;;;;;20253304;29;20612;-68
2021/10/23 11:56:12;;;;;;;0.20;0.00;;;23.10;99.90;;;;;;20298118;29;20836;-68
2021/10/23 12:06:17;;;;;;;0.33;0.33;;;22.40;99.90;;;;;;20342965;29;20680;-68
2021/10/23 12:16:35;;;;;;;0.23;0.23;;;21.70;99.90;;;;;;20332041;29;20233;-68
2021/10/23 12:26:38;;;;;;;1.38;0.28;;;21.60;99.90;;;;;;20331922;29;20202;-68
2021/10/23 12:36:50;;;;;;;0.35;0.35;;;22.40;99.90;;;;;;20336427;29;20308;-68
2021/10/23 12:46:55;;;;;;;0.80;0.57;;;22.30;99.90;;;;;;20345863;29;20529;-67
2021/10/23 12:57:00;;;;;;;0.43;0.43;;;22.30;99.90;;;;;;20292078;29;20305;-68
2021/10/23 13:07:04;;;;;;;0.40;0.28;;;24.20;99.90;;;;;;20264479;29;20245;-67
2021/10/23 13:17:09;;;;;;;0.40;0.22;;;24.50;99.90;;;;;;20264249;29;20544;-67
2021/10/23 13:27:12;;;;;;;0.50;0.50;;;24.40;99.90;;;;;;20260893;29;20241;-67
2021/10/23 13:37:17;;;;;;;1.35;0.32;;;24.80;99.90;;;;;;20261160;29;20410;-66
2021/10/23 13:47:21;;;;;;;0.38;0.25;;;24.80;99.90;;;;;;20259649;29;20691;-67
2021/10/23 13:57:27;;;;;;;0.20;0.10;;;25.10;99.90;;;;;;20312287;29;20229;-66
2021/10/23 14:07:31;;;;;;;2.00;0.55;;;24.20;99.90;;;;;;20333142;29;20772;-66
2021/10/23 14:17:37;;;;;;;0.43;0.28;;;24.60;99.90;;;;;;20334458;29;20628;-68
2021/10/23 14:27:55;;;;;;;0.50;0.20;;;25.40;99.90;;;;;;20334514;29;20798;-66
2021/10/23 14:38:00;;;;;;;1.50;0.85;;;25.20;99.90;;;;;;20348256;29;20232;-65
2021/10/23 14:48:04;;;;;;;0.57;0.35;;;25.50;99.90;;;;;;20330336;29;20226;-66
2021/10/23 14:58:10;;;;;;;0.75;0.40;;;25.10;99.90;;;;;;20271850;29;20619;-66
2021/10/23 15:08:13;;;;;;;0.70;0.70;;;24.60;99.90;;;;;;20253908;29;20235;-66
2021/10/23 15:18:19;;;;;;;0.20;0.03;;;22.80;99.90;;;;;;20250053;29;20581;-67
2021/10/23 15:28:22;;;;;;;2.27;1.10;;;21.00;99.90;;;;;;20252682;29;20291;-66
2021/10/23 15:38:31;;;;;;;1.80;0.23;;;20.50;99.90;;;;;;20250200;29;20238;-66
2021/10/23 15:48:35;;;;;;;1.33;0.50;;;20.30;99.90;;;;;;20251657;29;20199;-67
2021/10/23 15:58:40;;;;;;;0.73;0.70;;;19.90;99.90;;;;;;20311258;29;20222;-66
2021/10/23 16:08:44;;;;;;;0.40;0.30;;;19.60;99.90;;;;;;20328976;29;20245;-67
2021/10/23 16:18:49;;;;;;;0.30;0.30;;;19.50;99.90;;;;;;20344247;29;20226;-67
2021/10/23 16:28:52;;;;;;;0.30;0.30;;;19.10;99.90;;;;;;20343333;29;20586;-66
2021/10/23 16:39:02;;;;;;;0.20;0.10;;;18.70;99.90;;;;;;20285146;29;20313;-68
2021/10/23 16:49:06;;;;;;;0.30;0.30;;;18.60;99.90;;;;;;20264011;29;20199;-67
2021/10/23 16:59:11;;;;;;;0.20;0.10;;;18.20;99.90;;;;;;20329683;29;20234;-66
2021/10/23 17:09:18;;;;;;;1.23;0.63;;;17.90;99.90;;;;;;20321369;29;20199;-68
2021/10/23 17:19:23;;;;;;;0.20;0.10;;;17.40;99.90;;;;;;20257697;29;20222;-68
2021/10/23 17:29:27;;;;;;;4.03;0.80;;;17.00;99.90;;;;;;20257482;29;20766;-67
2021/10/23 17:39:32;;;;;;;0.50;0.33;;;16.60;99.90;;;;;;20256656;29;20229;-66
2021/10/23 17:49:37;;;;;;;0.20;0.20;;;16.40;99.90;;;;;;20244847;29;20238;-67
2021/10/23 17:59:42;;;;;;;0.40;0.40;;;15.90;99.90;;;;;;20299625;29;20321;-67
2021/10/23 18:09:46;;;;;;;3.60;0.87;;;15.70;99.90;;;;;;20328313;29;20220;-67
2021/10/23 18:19:51;;;;;;;0.57;0.57;;;15.40;99.90;;;;;;20332882;29;20241;-68
2021/10/23 18:29:56;;;;;;;0.37;0.30;;;15.50;99.90;;;;;;20331178;29;20508;-68
2021/10/23 18:40:01;;;;;;;0.30;0.30;;;15.30;99.90;;;;;;20332710;29;20253;-67
2021/10/23 18:50:05;;;;;;;0.80;0.80;;;15.10;99.90;;;;;;20332622;29;20203;-67
2021/10/23 19:00:12;;;;;;;0.27;0.27;;;15.00;99.90;;;;;;20330557;29;20737;-67
2021/10/23 19:10:16;;;;;;;0.20;0.10;;;14.90;99.90;;;;;;20330444;29;20209;-68
2021/10/23 19:20:22;;;;;;;1.57;1.40;;;14.70;99.90;;;;;;20328553;29;20312;-67
2021/10/23 19:30:26;;;;;;;0.30;0.30;;;14.60;99.90;;;;;;20332022;29;20637;-68
2021/10/23 19:40:32;;;;;;;0.43;0.37;;;14.70;99.90;;;;;;20330976;29;20530;-66
2021/10/23 19:50:35;;;;;;;0.20;0.17;;;14.50;99.90;;;;;;20338430;29;20210;-67
2021/10/23 20:00:41;;;;;;;1.50;1.13;;;14.40;99.90;;;;;;20267232;29;20322;-66
2021/10/23 20:10:45;;;;;;;1.97;1.87;;;14.40;99.90;;;;;;20265972;29;20700;-67
2021/10/23 20:20:50;;;;;;;0.63;0.60;;;14.50;99.90;;;;;;20265801;29;20270;-67
2021/10/23 20:30:54;;;;;;;0.23;0.13;;;14.40;99.90;;;;;;20266193;29;20206;-68
2021/10/23 20:40:59;;;;;;;0.30;0.27;;;14.70;99.90;;;;;;20283726;29;20218;-68
2021/10/23 20:51:04;;;;;;;0.93;0.40;;;14.90;99.90;;;;;;20338536;29;20226;-68
2021/10/23 21:01:09;;;;;;;0.20;0.00;;;14.90;99.90;;;;;;20342700;29;20234;-68
2021/10/23 21:11:13;;;;;;;0.40;0.30;;;15.00;99.90;;;;;;20302972;29;20641;-68
2021/10/23 21:21:18;;;;;;;0.60;0.60;;;15.10;99.90;;;;;;20265267;29;20280;-68
2021/10/23 21:31:22;;;;;;;3.17;0.60;;;14.80;99.90;;;;;;20266509;29;20693;-67
2021/10/23 21:41:27;;;;;;;0.20;0.10;;;14.40;99.90;;;;;;20270510;29;20238;-68
2021/10/23 21:51:31;;;;;;;0.57;0.40;;;14.20;99.90;;;;;;20283056;29;20560;-68
2021/10/23 22:01:36;;;;;;;0.50;0.50;;;14.30;99.90;;;;;;20283801;29;20246;-68
2021/10/23 22:11:40;;;;;;;0.20;0.10;;;14.70;99.90;;;;;;20258941;29;20633;-67
2021/10/23 22:21:46;;;;;;;0.80;0.73;;;14.80;99.90;;;;;;20260313;29;20372;-68
2021/10/23 22:31:50;;;;;;;0.20;0.13;;;14.70;99.90;;;;;;20259602;29;20262;-69
2021/10/23 22:41:54;;;;;;;0.60;0.50;;;14.70;99.90;;;;;;20261744;29;20262;-68
2021/10/23 22:51:58;;;;;;;0.30;0.20;;;14.60;99.90;;;;;;20270830;29;20201;-68
2021/10/23 23:02:04;;;;;;;0.20;0.20;;;14.70;99.90;;;;;;20335846;29;20337;-67
2021/10/23 23:12:10;;;;;;;1.93;0.40;;;14.80;99.90;;;;;;20351700;29;20578;-68
2021/10/23 23:22:15;;;;;;;0.30;0.30;;;14.50;99.90;;;;;;20336331;29;20265;-68
2021/10/23 23:32:18;;;;;;;1.63;0.30;;;14.60;99.90;;;;;;20334218;29;20202;-68
2021/10/23 23:42:23;;;;;;;0.40;0.40;;;14.60;99.90;;;;;;20333205;29;20257;-68
2021/10/23 23:52:27;;;;;;;1.90;1.43;;;14.70;99.90;;;;;;20317462;29;20203;-68
